Time;durP1;ratioP1;P1;durP2;ratioP2;P2;SDS_P1;SDS_P2;PMS_P1;PMS_P2;Temp;Humidity;BMP_temperature;BMP_pressure;BME280_temperature;BME280_humidity;BME280_pressure;Samples;Min_cycle;Max_cycle;Signal;HPM_P1;HPM_P2
2022/07/16 00:02:58;;;;;;;6.40;3.53;;;;;;;;;;4861335;29;20064;-76
2022/07/16 00:05:24;;;;;;;7.75;3.75;;;;;;;;;;4877827;29;20052;-75
2022/07/16 00:07:51;;;;;;;5.93;3.92;;;;;;;;;;4880893;29;20049;-75
2022/07/16 00:10:18;;;;;;;5.45;3.60;;;;;;;;;;4880888;29;20069;-75
2022/07/16 00:12:44;;;;;;;4.15;3.40;;;;;;;;;;4880688;29;20057;-75
2022/07/16 00:15:11;;;;;;;8.63;4.18;;;;;;;;;;4880558;29;20060;-75
2022/07/16 00:17:38;;;;;;;6.53;4.20;;;;;;;;;;4880589;29;20057;-75
2022/07/16 00:20:06;;;;;;;4.70;3.92;;;;;;;;;;4880251;29;20049;-75
2022/07/16 00:22:32;;;;;;;5.00;4.20;;;;;;;;;;4864329;29;20060;-75
2022/07/16 00:24:59;;;;;;;7.47;4.03;;;;;;;;;;4880677;29;20057;-75
2022/07/16 00:27:25;;;;;;;9.48;3.97;;;;;;;;;;4880504;29;20505;-75
2022/07/16 00:29:52;;;;;;;5.82;4.25;;;;;;;;;;4880197;29;20060;-76
2022/07/16 00:32:19;;;;;;;5.22;3.58;;;;;;;;;;4880420;29;20057;-75
2022/07/16 00:34:45;;;;;;;6.60;3.85;;;;;;;;;;4880553;29;20060;-74
2022/07/16 00:37:12;;;;;;;6.03;3.70;;;;;;;;;;4879365;29;20397;-75
2022/07/16 00:39:39;;;;;;;6.10;3.72;;;;;;;;;;4863643;29;20053;-75
2022/07/16 00:42:07;;;;;;;6.40;3.70;;;;;;;;;;4880328;29;20108;-75
2022/07/16 00:44:33;;;;;;;8.43;3.85;;;;;;;;;;4880233;29;20072;-75
2022/07/16 00:47:00;;;;;;;8.18;3.83;;;;;;;;;;4880025;29;20060;-75
2022/07/16 00:49:27;;;;;;;12.32;3.90;;;;;;;;;;4880197;29;20044;-75
2022/07/16 00:51:54;;;;;;;9.13;4.80;;;;;;;;;;4880127;29;20068;-75
2022/07/16 00:54:21;;;;;;;8.90;4.80;;;;;;;;;;4880246;29;20064;-75
2022/07/16 00:56:48;;;;;;;7.45;4.80;;;;;;;;;;4863025;29;20500;-75
2022/07/16 00:59:14;;;;;;;10.07;4.90;;;;;;;;;;4878293;29;20083;-75
2022/07/16 01:01:41;;;;;;;5.63;4.28;;;;;;;;;;4878544;29;20057;-75
2022/07/16 01:04:11;;;;;;;9.85;4.95;;;;;;;;;;4879917;29;20060;-75
2022/07/16 01:06:39;;;;;;;7.38;5.05;;;;;;;;;;4863397;29;20057;-75
2022/07/16 01:09:05;;;;;;;7.03;4.80;;;;;;;;;;4879552;29;20052;-75
2022/07/16 01:11:32;;;;;;;9.90;4.97;;;;;;;;;;4863562;29;20428;-75
2022/07/16 01:13:59;;;;;;;7.53;4.68;;;;;;;;;;4878386;29;20073;-75
2022/07/16 01:16:26;;;;;;;8.75;4.90;;;;;;;;;;4863444;29;20053;-75
2022/07/16 01:18:52;;;;;;;6.57;4.68;;;;;;;;;;4879582;29;20053;-75
2022/07/16 01:21:19;;;;;;;5.45;4.25;;;;;;;;;;4863128;29;20060;-75
2022/07/16 01:23:47;;;;;;;9.32;4.68;;;;;;;;;;4879573;29;20048;-74
2022/07/16 01:26:14;;;;;;;10.93;5.03;;;;;;;;;;4879547;29;20061;-75
2022/07/16 01:28:41;;;;;;;6.38;4.70;;;;;;;;;;4878201;29;20060;-75
2022/07/16 01:31:08;;;;;;;7.55;5.10;;;;;;;;;;4863045;29;20053;-75
2022/07/16 01:33:37;;;;;;;8.68;4.95;;;;;;;;;;4878518;29;20064;-75
2022/07/16 01:36:15;;;;;;;7.72;4.60;;;;;;;;;;4878465;29;20068;-75
2022/07/16 01:38:44;;;;;;;6.78;4.63;;;;;;;;;;4878004;29;20053;-75
2022/07/16 01:41:11;;;;;;;5.38;4.82;;;;;;;;;;4878130;29;20053;-75
2022/07/16 01:43:38;;;;;;;6.20;4.55;;;;;;;;;;4863054;29;20049;-75
2022/07/16 01:46:05;;;;;;;9.40;5.75;;;;;;;;;;4878309;29;20053;-75
2022/07/16 01:48:32;;;;;;;10.77;5.53;;;;;;;;;;4877870;29;20049;-75
2022/07/16 01:50:59;;;;;;;7.10;4.90;;;;;;;;;;4879130;29;20501;-77
2022/07/16 01:53:28;;;;;;;7.18;4.93;;;;;;;;;;4877717;29;20053;-76
2022/07/16 01:55:55;;;;;;;6.15;5.38;;;;;;;;;;4878113;29;20061;-76
2022/07/16 01:58:22;;;;;;;5.97;4.80;;;;;;;;;;4878054;29;20057;-76
2022/07/16 02:00:49;;;;;;;5.82;4.93;;;;;;;;;;4877880;29;20424;-76
2022/07/16 02:03:16;;;;;;;8.20;4.93;;;;;;;;;;4878947;29;20136;-75
2022/07/16 02:05:43;;;;;;;8.20;5.15;;;;;;;;;;4878760;29;20049;-74
2022/07/16 02:08:09;;;;;;;5.20;4.70;;;;;;;;;;4877374;29;20059;-74
2022/07/16 02:10:36;;;;;;;8.60;5.07;;;;;;;;;;4877571;29;20053;-74
2022/07/16 02:13:03;;;;;;;7.53;5.38;;;;;;;;;;4877512;29;20055;-74
2022/07/16 02:15:30;;;;;;;5.85;4.93;;;;;;;;;;4877793;29;20057;-74
2022/07/16 02:17:57;;;;;;;6.18;4.72;;;;;;;;;;4877525;29;20136;-74
2022/07/16 02:20:24;;;;;;;6.50;4.03;;;;;;;;;;4877282;29;20053;-74
2022/07/16 02:22:53;;;;;;;6.43;4.70;;;;;;;;;;4877285;29;20489;-74
2022/07/16 02:25:19;;;;;;;5.60;5.10;;;;;;;;;;4877609;29;20052;-75
2022/07/16 02:30:32;;;;;;;7.38;5.60;;;;;;;;;;4878478;29;20053;-75
2022/07/16 02:32:58;;;;;;;6.97;5.03;;;;;;;;;;4877388;29;20048;-75
2022/07/16 02:35:25;;;;;;;6.75;4.35;;;;;;;;;;4877083;29;20061;-74
2022/07/16 02:37:52;;;;;;;5.72;4.97;;;;;;;;;;4878410;29;20056;-74
2022/07/16 02:40:19;;;;;;;6.20;4.40;;;;;;;;;;4878338;29;20052;-74
2022/07/16 02:42:46;;;;;;;5.15;4.22;;;;;;;;;;4877272;29;20057;-73
2022/07/16 02:45:13;;;;;;;6.20;5.13;;;;;;;;;;4878223;29;20056;-73
2022/07/16 02:47:39;;;;;;;6.88;4.70;;;;;;;;;;4878259;29;20049;-74
2022/07/16 02:50:07;;;;;;;5.60;4.60;;;;;;;;;;4877943;29;20064;-73
2022/07/16 02:52:34;;;;;;;5.28;4.78;;;;;;;;;;4878296;29;20059;-74
2022/07/16 02:55:01;;;;;;;6.35;5.05;;;;;;;;;;4877035;29;20515;-73
2022/07/16 02:57:28;;;;;;;5.93;5.25;;;;;;;;;;4877258;29;20076;-73
2022/07/16 02:59:54;;;;;;;7.72;4.85;;;;;;;;;;4877697;29;20060;-74
2022/07/16 03:02:21;;;;;;;8.75;5.55;;;;;;;;;;4924177;23;20511;-66
2022/07/16 03:04:48;;;;;;;8.68;5.97;;;;;;;;;;4934808;29;20126;-66
2022/07/16 03:07:15;;;;;;;6.68;4.85;;;;;;;;;;4935030;29;20047;-66
2022/07/16 03:09:42;;;;;;;8.75;5.80;;;;;;;;;;4934454;29;20051;-67
2022/07/16 03:12:08;;;;;;;12.55;5.68;;;;;;;;;;4927460;29;20063;-67
2022/07/16 03:14:36;;;;;;;8.23;6.13;;;;;;;;;;4915601;29;20060;-67
2022/07/16 03:17:02;;;;;;;7.70;4.65;;;;;;;;;;4915444;29;20052;-67
2022/07/16 03:19:32;;;;;;;6.53;5.22;;;;;;;;;;4915257;29;20507;-67
2022/07/16 03:21:59;;;;;;;8.40;5.43;;;;;;;;;;4918767;29;20050;-67
2022/07/16 03:24:26;;;;;;;7.03;4.85;;;;;;;;;;4919421;29;20056;-67
2022/07/16 03:26:52;;;;;;;10.80;5.40;;;;;;;;;;4919462;29;20480;-67
2022/07/16 03:29:27;;;;;;;7.50;5.55;;;;;;;;;;4919086;29;20135;-67
2022/07/16 03:31:54;;;;;;;8.00;5.28;;;;;;;;;;4919275;29;20048;-67
2022/07/16 03:34:21;;;;;;;8.23;5.63;;;;;;;;;;4919187;29;20052;-67
2022/07/16 03:36:48;;;;;;;6.10;5.43;;;;;;;;;;4919174;29;20496;-67
2022/07/16 03:39:15;;;;;;;6.93;4.90;;;;;;;;;;4918849;29;20052;-67
2022/07/16 03:41:42;;;;;;;9.45;5.60;;;;;;;;;;4908603;29;20052;-66
2022/07/16 03:44:09;;;;;;;6.18;4.85;;;;;;;;;;4900100;29;20059;-67
2022/07/16 03:46:37;;;;;;;5.68;5.00;;;;;;;;;;4900191;29;20053;-67
2022/07/16 03:49:04;;;;;;;5.68;4.88;;;;;;;;;;4899769;29;20080;-66
2022/07/16 03:51:31;;;;;;;6.82;5.18;;;;;;;;;;4900219;29;20056;-66
2022/07/16 03:53:58;;;;;;;6.13;4.75;;;;;;;;;;4899796;29;20532;-67
2022/07/16 03:56:24;;;;;;;6.43;4.82;;;;;;;;;;4899938;29;20059;-68
2022/07/16 03:58:52;;;;;;;8.50;5.90;;;;;;;;;;4899718;29;20504;-68
2022/07/16 04:01:18;;;;;;;7.13;4.60;;;;;;;;;;4899444;29;20053;-68
2022/07/16 04:03:45;;;;;;;6.68;4.85;;;;;;;;;;4898521;29;20053;-68
2022/07/16 04:06:12;;;;;;;7.82;5.40;;;;;;;;;;4914735;29;20088;-68
2022/07/16 04:08:39;;;;;;;8.10;4.72;;;;;;;;;;4918347;29;20052;-68
2022/07/16 04:11:06;;;;;;;7.93;5.43;;;;;;;;;;4908845;29;20053;-68
2022/07/16 04:13:32;;;;;;;6.13;4.75;;;;;;;;;;4899739;29;20060;-68
2022/07/16 04:15:59;;;;;;;5.95;4.43;;;;;;;;;;4899662;29;20065;-67
2022/07/16 04:18:26;;;;;;;5.78;5.18;;;;;;;;;;4899358;29;20052;-68
2022/07/16 04:20:54;;;;;;;7.25;4.63;;;;;;;;;;4899606;29;20095;-69
2022/07/16 04:23:21;;;;;;;7.53;5.25;;;;;;;;;;4899521;29;20096;-68
2022/07/16 04:25:48;;;;;;;8.07;5.20;;;;;;;;;;4899406;29;20071;-68
2022/07/16 04:28:15;;;;;;;9.13;4.93;;;;;;;;;;4907848;29;20088;-68
2022/07/16 04:30:42;;;;;;;8.07;4.97;;;;;;;;;;4915427;29;20052;-68
2022/07/16 04:33:08;;;;;;;9.40;4.90;;;;;;;;;;4910477;29;20062;-67
2022/07/16 04:35:35;;;;;;;7.00;4.90;;;;;;;;;;4906797;29;20070;-68
2022/07/16 04:38:02;;;;;;;7.55;5.05;;;;;;;;;;4907046;29;20052;-68
2022/07/16 04:40:29;;;;;;;5.90;5.03;;;;;;;;;;4907392;29;20049;-69
2022/07/16 04:42:55;;;;;;;5.82;5.13;;;;;;;;;;4908688;29;20495;-69
2022/07/16 04:45:22;;;;;;;6.55;5.13;;;;;;;;;;4908595;29;20056;-69
2022/07/16 04:47:49;;;;;;;6.53;5.40;;;;;;;;;;4906859;29;20044;-69
2022/07/16 04:50:16;;;;;;;6.55;5.05;;;;;;;;;;4908119;29;20056;-69
2022/07/16 04:52:46;;;;;;;7.32;4.75;;;;;;;;;;4906783;29;20053;-68
2022/07/16 04:55:13;;;;;;;7.57;5.25;;;;;;;;;;4915186;29;20051;-68
2022/07/16 04:57:39;;;;;;;5.57;4.93;;;;;;;;;;4916604;29;20052;-68
2022/07/16 05:00:06;;;;;;;6.53;4.90;;;;;;;;;;4917413;29;20052;-68
2022/07/16 05:05:21;;;;;;;5.97;5.10;;;;;;;;;;4917501;29;20087;-67
2022/07/16 05:07:48;;;;;;;5.40;4.75;;;;;;;;;;4917244;29;20504;-68
2022/07/16 05:10:15;;;;;;;6.75;5.63;;;;;;;;;;4911799;29;20054;-69
2022/07/16 05:12:42;;;;;;;6.53;4.95;;;;;;;;;;4906742;29;20049;-68
2022/07/16 05:15:09;;;;;;;8.30;5.00;;;;;;;;;;4909101;29;20048;-69
2022/07/16 05:17:35;;;;;;;5.65;5.10;;;;;;;;;;4917348;29;20063;-68
2022/07/16 05:20:03;;;;;;;7.20;5.00;;;;;;;;;;4916910;29;20052;-68
2022/07/16 05:22:31;;;;;;;7.03;5.38;;;;;;;;;;4916978;29;20054;-68
2022/07/16 05:24:58;;;;;;;5.80;5.13;;;;;;;;;;4917307;29;20052;-68
2022/07/16 05:27:24;;;;;;;6.32;5.55;;;;;;;;;;4917185;29;20051;-67
2022/07/16 05:29:51;;;;;;;7.13;5.22;;;;;;;;;;4916745;29;20147;-67
2022/07/16 05:32:18;;;;;;;6.32;4.95;;;;;;;;;;4903094;29;20488;-68
2022/07/16 05:34:44;;;;;;;7.25;4.95;;;;;;;;;;4898222;29;20074;-68
2022/07/16 05:37:11;;;;;;;5.75;4.30;;;;;;;;;;4904643;29;20062;-68
2022/07/16 05:39:38;;;;;;;8.10;4.35;;;;;;;;;;4916939;29;20475;-68
2022/07/16 05:42:04;;;;;;;6.53;5.35;;;;;;;;;;4916822;29;20054;-68
2022/07/16 05:44:31;;;;;;;6.97;4.35;;;;;;;;;;4916391;29;20572;-68
2022/07/16 05:46:58;;;;;;;6.93;5.00;;;;;;;;;;4916469;29;20071;-68
2022/07/16 05:49:25;;;;;;;8.13;4.35;;;;;;;;;;4916553;29;20048;-68
2022/07/16 05:51:51;;;;;;;7.20;4.93;;;;;;;;;;4916433;29;20056;-68
2022/07/16 05:54:18;;;;;;;5.97;4.22;;;;;;;;;;4916615;29;20455;-68
2022/07/16 05:56:45;;;;;;;6.35;4.63;;;;;;;;;;4916467;29;20048;-68
2022/07/16 05:59:11;;;;;;;6.22;5.10;;;;;;;;;;4916380;29;20499;-68
2022/07/16 06:01:38;;;;;;;5.70;5.07;;;;;;;;;;4916008;29;20423;-68
2022/07/16 06:04:05;;;;;;;6.68;4.25;;;;;;;;;;4916448;29;20058;-68
2022/07/16 06:06:31;;;;;;;5.97;4.57;;;;;;;;;;4916260;29;20063;-68
2022/07/16 06:08:58;;;;;;;6.97;4.05;;;;;;;;;;4916318;29;20056;-68
2022/07/16 06:11:25;;;;;;;5.90;4.10;;;;;;;;;;4915973;29;20056;-68
2022/07/16 06:13:51;;;;;;;5.97;3.92;;;;;;;;;;4916228;29;20052;-68
2022/07/16 06:16:19;;;;;;;6.18;3.90;;;;;;;;;;4915928;29;20055;-67
2022/07/16 06:18:46;;;;;;;5.55;3.60;;;;;;;;;;4914876;29;20443;-68
2022/07/16 06:21:13;;;;;;;4.97;3.25;;;;;;;;;;4915899;29;20052;-68
2022/07/16 06:23:40;;;;;;;4.20;3.08;;;;;;;;;;4916026;29;20052;-68
2022/07/16 06:26:06;;;;;;;8.85;3.15;;;;;;;;;;4916247;29;20135;-68
2022/07/16 06:28:33;;;;;;;5.00;3.60;;;;;;;;;;4915613;29;20500;-68
2022/07/16 06:31:00;;;;;;;4.72;3.42;;;;;;;;;;4916015;29;20048;-68
2022/07/16 06:33:26;;;;;;;8.98;4.10;;;;;;;;;;4915869;29;20115;-67
2022/07/16 06:35:53;;;;;;;5.03;3.15;;;;;;;;;;4916177;29;20051;-68
2022/07/16 06:38:19;;;;;;;5.43;3.42;;;;;;;;;;4915792;29;20136;-68
2022/07/16 06:40:46;;;;;;;7.72;3.28;;;;;;;;;;4916111;29;20058;-68
2022/07/16 06:43:13;;;;;;;10.23;3.63;;;;;;;;;;4915753;29;20136;-68
2022/07/16 06:45:42;;;;;;;3.88;3.15;;;;;;;;;;4915955;29;20056;-68
2022/07/16 06:48:09;;;;;;;6.65;3.13;;;;;;;;;;4915245;29;20063;-68
2022/07/16 06:50:36;;;;;;;5.55;2.70;;;;;;;;;;4915892;29;20423;-68
2022/07/16 06:53:03;;;;;;;4.15;3.10;;;;;;;;;;4914633;29;20048;-68
2022/07/16 06:55:29;;;;;;;5.10;3.45;;;;;;;;;;4914843;29;20499;-68
2022/07/16 06:57:56;;;;;;;4.20;3.40;;;;;;;;;;4915647;29;20147;-68
2022/07/16 07:00:23;;;;;;;6.20;3.75;;;;;;;;;;4915908;29;20055;-68
2022/07/16 07:02:49;;;;;;;4.68;3.22;;;;;;;;;;4915213;29;20048;-68
2022/07/16 07:05:16;;;;;;;4.97;3.20;;;;;;;;;;4915670;29;20052;-68
2022/07/16 07:07:44;;;;;;;4.68;2.78;;;;;;;;;;4914555;29;20108;-68
2022/07/16 07:10:10;;;;;;;7.50;3.30;;;;;;;;;;4915563;29;20143;-68
2022/07/16 07:12:37;;;;;;;6.75;3.45;;;;;;;;;;4915651;29;20058;-68
2022/07/16 07:15:04;;;;;;;3.47;2.95;;;;;;;;;;4916079;29;20063;-68
2022/07/16 07:17:31;;;;;;;6.10;3.60;;;;;;;;;;4915824;29;20059;-68
2022/07/16 07:19:58;;;;;;;4.57;3.80;;;;;;;;;;4915460;29;20052;-69
2022/07/16 07:22:24;;;;;;;4.75;3.70;;;;;;;;;;4915252;29;20048;-68
2022/07/16 07:24:51;;;;;;;5.15;3.67;;;;;;;;;;4915402;29;20059;-68
2022/07/16 07:27:18;;;;;;;8.15;4.05;;;;;;;;;;4915367;29;20052;-68
2022/07/16 07:29:45;;;;;;;5.13;3.25;;;;;;;;;;4915381;29;20063;-68
2022/07/16 07:32:13;;;;;;;3.60;3.30;;;;;;;;;;4915002;29;20044;-68
2022/07/16 07:34:40;;;;;;;7.65;3.33;;;;;;;;;;4915427;29;20100;-69
2022/07/16 07:37:07;;;;;;;6.43;3.22;;;;;;;;;;4915420;29;20078;-67
2022/07/16 07:39:34;;;;;;;6.32;3.42;;;;;;;;;;4915106;29;20067;-68
2022/07/16 07:42:01;;;;;;;5.97;3.50;;;;;;;;;;4915284;29;20415;-69
2022/07/16 07:44:27;;;;;;;7.65;3.33;;;;;;;;;;4914532;29;20063;-69
2022/07/16 07:46:54;;;;;;;4.90;3.60;;;;;;;;;;4913643;29;20056;-68
2022/07/16 07:49:21;;;;;;;8.05;3.50;;;;;;;;;;4913762;29;20052;-68
2022/07/16 07:51:48;;;;;;;6.90;3.80;;;;;;;;;;4915046;29;20103;-67
2022/07/16 07:54:14;;;;;;;8.02;3.38;;;;;;;;;;4915369;29;20055;-67
2022/07/16 07:56:41;;;;;;;6.75;3.90;;;;;;;;;;4915473;29;20096;-67
2022/07/16 07:59:08;;;;;;;8.02;3.58;;;;;;;;;;4914954;29;20087;-67
2022/07/16 08:01:34;;;;;;;6.70;3.20;;;;;;;;;;4914739;29;20423;-69
2022/07/16 08:04:01;;;;;;;4.43;3.53;;;;;;;;;;4915087;29;20056;-69
2022/07/16 08:06:28;;;;;;;8.50;3.20;;;;;;;;;;4915940;29;20080;-70
2022/07/16 08:08:55;;;;;;;7.20;2.65;;;;;;;;;;4918588;29;20052;-70
2022/07/16 08:11:21;;;;;;;5.50;2.42;;;;;;;;;;4918523;29;20055;-71
2022/07/16 08:13:48;;;;;;;5.80;2.50;;;;;;;;;;4918497;29;20082;-70
2022/07/16 08:16:35;;;;;;;4.75;2.75;;;;;;;;;;4918770;29;20063;-71
2022/07/16 08:19:02;;;;;;;3.20;2.30;;;;;;;;;;4918206;29;20059;-68
2022/07/16 08:21:28;;;;;;;5.93;2.65;;;;;;;;;;4918394;29;20059;-68
2022/07/16 08:26:47;;;;;;;2.67;1.92;;;;;;;;;;4918277;29;20495;-68
2022/07/16 08:29:14;;;;;;;3.90;1.70;;;;;;;;;;4918194;29;20060;-68
2022/07/16 08:31:41;;;;;;;2.08;1.60;;;;;;;;;;4918045;29;20052;-68
2022/07/16 08:34:08;;;;;;;3.47;1.70;;;;;;;;;;4918234;29;20079;-68
2022/07/16 08:36:36;;;;;;;2.45;1.52;;;;;;;;;;4918202;29;20052;-68
2022/07/16 08:39:03;;;;;;;3.28;1.95;;;;;;;;;;4917973;29;20048;-68
2022/07/16 08:41:29;;;;;;;5.45;1.50;;;;;;;;;;4917853;29;20058;-67
2022/07/16 08:43:56;;;;;;;3.00;1.45;;;;;;;;;;4917038;29;20059;-68
2022/07/16 08:46:22;;;;;;;3.15;1.83;;;;;;;;;;4917913;29;20507;-68
2022/07/16 08:48:54;;;;;;;2.95;1.33;;;;;;;;;;4916770;29;20107;-67
2022/07/16 08:51:30;;;;;;;2.63;1.25;;;;;;;;;;4918025;29;20059;-67
2022/07/16 08:54:21;;;;;;;4.15;1.40;;;;;;;;;;4916806;29;20056;-67
2022/07/16 08:56:49;;;;;;;5.60;1.48;;;;;;;;;;4917859;29;20506;-67
2022/07/16 08:59:16;;;;;;;3.67;1.35;;;;;;;;;;4917686;29;20467;-67
2022/07/16 09:01:42;;;;;;;2.75;1.17;;;;;;;;;;4938870;23;20059;-71
2022/07/16 09:04:09;;;;;;;3.85;1.77;;;;;;;;;;4899772;29;20060;-71
2022/07/16 09:06:36;;;;;;;2.40;1.30;;;;;;;;;;4916332;29;20423;-71
2022/07/16 09:09:03;;;;;;;1.73;1.17;;;;;;;;;;4916078;29;20058;-71
2022/07/16 09:11:31;;;;;;;4.20;1.70;;;;;;;;;;4917756;29;20062;-71
2022/07/16 09:14:08;;;;;;;2.60;1.10;;;;;;;;;;4900865;29;20135;-71
2022/07/16 09:16:40;;;;;;;2.83;1.33;;;;;;;;;;4916090;29;20048;-71
2022/07/16 09:19:11;;;;;;;6.72;1.42;;;;;;;;;;4900552;29;20453;-71
2022/07/16 09:22:16;;;;;;;1.33;1.05;;;;;;;;;;4917091;29;20091;-71
2022/07/16 09:24:45;;;;;;;4.80;1.40;;;;;;;;;;4918281;29;20055;-71
2022/07/16 09:27:12;;;;;;;4.88;1.38;;;;;;;;;;4918274;29;20529;-71
2022/07/16 09:29:45;;;;;;;2.90;1.30;;;;;;;;;;4925439;29;20056;-71
2022/07/16 09:32:16;;;;;;;3.85;1.00;;;;;;;;;;4916178;29;20519;-71
2022/07/16 09:34:43;;;;;;;2.97;1.27;;;;;;;;;;4915021;29;20056;-71
2022/07/16 09:37:10;;;;;;;4.50;1.73;;;;;;;;;;4917636;29;20488;-71
2022/07/16 09:39:36;;;;;;;4.35;1.30;;;;;;;;;;4915588;29;20052;-71
2022/07/16 09:42:03;;;;;;;2.33;1.17;;;;;;;;;;4899650;29;20058;-71
2022/07/16 09:44:33;;;;;;;1.77;1.02;;;;;;;;;;4916759;29;20054;-71
2022/07/16 09:47:07;;;;;;;4.75;1.60;;;;;;;;;;4900173;29;20079;-71
2022/07/16 09:49:39;;;;;;;2.65;1.15;;;;;;;;;;4915502;29;20454;-71
2022/07/16 09:52:08;;;;;;;2.38;1.40;;;;;;;;;;4900132;29;20052;-71
2022/07/16 09:54:37;;;;;;;5.13;1.10;;;;;;;;;;4916510;29;20539;-71
2022/07/16 09:57:12;;;;;;;7.40;1.63;;;;;;;;;;4899801;29;20052;-72
2022/07/16 09:59:40;;;;;;;3.28;1.20;;;;;;;;;;4916402;29;20048;-71
2022/07/16 10:02:30;;;;;;;3.33;1.10;;;;;;;;;;4902064;29;20048;-71
2022/07/16 10:04:58;;;;;;;2.97;1.10;;;;;;;;;;4900110;29;20056;-71
2022/07/16 10:07:31;;;;;;;3.10;1.17;;;;;;;;;;4915329;29;20078;-72
2022/07/16 10:09:58;;;;;;;2.67;1.13;;;;;;;;;;4914986;29;20058;-71
2022/07/16 10:12:25;;;;;;;2.13;1.20;;;;;;;;;;4899759;29;20135;-72
2022/07/16 10:14:53;;;;;;;2.83;0.95;;;;;;;;;;4899501;29;20111;-72
2022/07/16 10:17:23;;;;;;;4.53;1.27;;;;;;;;;;4899716;29;20052;-72
2022/07/16 10:19:57;;;;;;;1.90;1.25;;;;;;;;;;4899160;29;20056;-71
2022/07/16 10:22:31;;;;;;;2.40;0.90;;;;;;;;;;4915054;29;20048;-71
2022/07/16 10:24:58;;;;;;;2.22;1.17;;;;;;;;;;4915158;29;20099;-71
2022/07/16 10:27:27;;;;;;;2.10;1.02;;;;;;;;;;4899536;29;20052;-72
2022/07/16 10:30:14;;;;;;;2.45;1.30;;;;;;;;;;4913766;29;20340;-72
2022/07/16 10:33:00;;;;;;;3.47;1.20;;;;;;;;;;4914702;29;20052;-71
2022/07/16 10:35:44;;;;;;;4.13;1.40;;;;;;;;;;4930598;29;20087;-72
2022/07/16 10:38:16;;;;;;;3.65;1.52;;;;;;;;;;4915177;29;20107;-72
2022/07/16 10:41:13;;;;;;;3.00;1.10;;;;;;;;;;4914653;29;20052;-72
2022/07/16 10:43:40;;;;;;;3.15;1.10;;;;;;;;;;4900208;29;20562;-72
2022/07/16 10:46:08;;;;;;;1.70;0.80;;;;;;;;;;4899148;29;20048;-72
2022/07/16 10:48:37;;;;;;;2.83;1.00;;;;;;;;;;4898986;29;20503;-72
2022/07/16 10:51:17;;;;;;;3.90;0.90;;;;;;;;;;4930114;29;20055;-72
2022/07/16 10:53:56;;;;;;;1.35;1.00;;;;;;;;;;4914414;29;20083;-72
2022/07/16 10:56:50;;;;;;;4.78;1.35;;;;;;;;;;4915845;29;20138;-72
2022/07/16 10:59:21;;;;;;;1.20;0.90;;;;;;;;;;4913609;29;20048;-72
2022/07/16 11:01:53;;;;;;;3.47;1.23;;;;;;;;;;4898904;29;20064;-72
2022/07/16 11:04:29;;;;;;;2.78;1.15;;;;;;;;;;4914610;29;20060;-73
2022/07/16 11:06:58;;;;;;;2.80;1.30;;;;;;;;;;4914379;29;20048;-72
2022/07/16 11:09:30;;;;;;;3.58;1.75;;;;;;;;;;4898930;29;20063;-71
2022/07/16 11:12:06;;;;;;;2.53;0.85;;;;;;;;;;4898712;29;20063;-74
2022/07/16 11:14:33;;;;;;;2.33;0.90;;;;;;;;;;4914342;29;20535;-73
2022/07/16 11:17:00;;;;;;;1.67;1.25;;;;;;;;;;4909472;29;20088;-74
2022/07/16 11:19:27;;;;;;;1.98;1.00;;;;;;;;;;4890554;29;20059;-73
2022/07/16 11:21:55;;;;;;;1.50;0.80;;;;;;;;;;4894631;29;20137;-74
2022/07/16 11:24:24;;;;;;;1.10;0.70;;;;;;;;;;4888584;29;20048;-73
2022/07/16 11:26:52;;;;;;;1.45;0.80;;;;;;;;;;4882287;29;20107;-74
2022/07/16 11:29:20;;;;;;;2.70;0.90;;;;;;;;;;4913219;29;20503;-74
2022/07/16 11:31:47;;;;;;;2.55;1.05;;;;;;;;;;4912689;29;20431;-74
2022/07/16 11:34:16;;;;;;;2.20;0.90;;;;;;;;;;4896031;29;20084;-74
2022/07/16 11:36:48;;;;;;;1.92;1.13;;;;;;;;;;4914336;29;20052;-75
2022/07/16 11:39:17;;;;;;;3.45;0.85;;;;;;;;;;4898422;29;20052;-74
2022/07/16 11:41:46;;;;;;;4.10;1.30;;;;;;;;;;4914949;29;20131;-73
2022/07/16 11:44:14;;;;;;;4.97;1.58;;;;;;;;;;4901964;29;20131;-74
2022/07/16 11:46:52;;;;;;;1.05;0.85;;;;;;;;;;4913545;29;20052;-75
2022/07/16 11:49:36;;;;;;;5.72;1.33;;;;;;;;;;4916628;29;20058;-74
2022/07/16 11:52:25;;;;;;;1.92;1.00;;;;;;;;;;4901232;29;20044;-74
2022/07/16 11:54:56;;;;;;;1.35;0.70;;;;;;;;;;4917476;29;20056;-74
2022/07/16 11:57:24;;;;;;;0.90;0.90;;;;;;;;;;4916228;29;20056;-74
2022/07/16 11:59:55;;;;;;;2.65;0.90;;;;;;;;;;4917946;29;20055;-74
2022/07/16 12:02:26;;;;;;;3.60;1.00;;;;;;;;;;4916756;29;20062;-74
2022/07/16 12:04:58;;;;;;;3.10;0.80;;;;;;;;;;4917099;29;20056;-73
2022/07/16 12:07:25;;;;;;;1.75;1.10;;;;;;;;;;4916905;29;20422;-73
2022/07/16 12:09:59;;;;;;;1.88;0.70;;;;;;;;;;4917700;29;20487;-74
2022/07/16 12:12:44;;;;;;;1.38;0.93;;;;;;;;;;4901384;29;20079;-73
2022/07/16 12:15:13;;;;;;;2.45;1.10;;;;;;;;;;4910011;29;20048;-73
2022/07/16 12:17:44;;;;;;;1.95;1.60;;;;;;;;;;4901606;29;20060;-73
2022/07/16 12:20:22;;;;;;;2.65;0.93;;;;;;;;;;4901305;29;20052;-74
2022/07/16 12:22:58;;;;;;;1.08;0.70;;;;;;;;;;4902498;29;20110;-73
2022/07/16 12:25:29;;;;;;;0.93;0.60;;;;;;;;;;4917262;29;20048;-73
2022/07/16 12:28:05;;;;;;;2.42;1.30;;;;;;;;;;4918169;29;20048;-73
2022/07/16 12:30:37;;;;;;;2.20;0.70;;;;;;;;;;4918261;29;20052;-74
2022/07/16 12:33:27;;;;;;;3.67;0.82;;;;;;;;;;4886380;29;20058;-74
2022/07/16 12:36:04;;;;;;;0.88;0.70;;;;;;;;;;4917063;29;20467;-73
2022/07/16 12:38:53;;;;;;;2.80;0.90;;;;;;;;;;4918016;29;20132;-72
2022/07/16 12:41:26;;;;;;;1.80;0.60;;;;;;;;;;4902928;29;20081;-72
2022/07/16 12:43:57;;;;;;;0.77;0.77;;;;;;;;;;4915606;29;20044;-73
2022/07/16 12:46:27;;;;;;;1.55;0.80;;;;;;;;;;4915683;29;20502;-72
2022/07/16 12:48:57;;;;;;;1.15;0.98;;;;;;;;;;4916165;29;20087;-72
2022/07/16 12:51:27;;;;;;;1.58;0.80;;;;;;;;;;4916690;29;20452;-72
2022/07/16 12:53:55;;;;;;;1.08;0.88;;;;;;;;;;4885058;29;20220;-73
2022/07/16 12:59:08;;;;;;;1.40;0.77;;;;;;;;;;4916218;29;20070;-71
2022/07/16 13:01:35;;;;;;;2.20;0.93;;;;;;;;;;4915932;29;20071;-72
2022/07/16 13:04:03;;;;;;;1.90;0.70;;;;;;;;;;4916494;29;20467;-73
2022/07/16 13:06:31;;;;;;;1.02;0.70;;;;;;;;;;4913175;29;20184;-71
2022/07/16 13:08:58;;;;;;;1.38;0.90;;;;;;;;;;4901776;29;20044;-73
2022/07/16 13:11:27;;;;;;;1.65;0.90;;;;;;;;;;4914911;29;20060;-73
2022/07/16 13:13:54;;;;;;;1.63;0.70;;;;;;;;;;4909213;29;20052;-72
2022/07/16 13:16:22;;;;;;;3.08;1.10;;;;;;;;;;4912499;29;20052;-71
2022/07/16 13:18:51;;;;;;;3.17;0.80;;;;;;;;;;4908437;29;20451;-73
2022/07/16 13:21:18;;;;;;;1.77;0.90;;;;;;;;;;4899301;29;20062;-74
2022/07/16 13:23:45;;;;;;;2.20;0.90;;;;;;;;;;4900172;29;20072;-73
2022/07/16 13:26:13;;;;;;;1.88;0.90;;;;;;;;;;4915184;29;20067;-73
2022/07/16 13:28:39;;;;;;;0.98;0.70;;;;;;;;;;4897287;29;20059;-73
2022/07/16 13:31:06;;;;;;;1.10;1.00;;;;;;;;;;4915948;29;20606;-73
2022/07/16 13:33:33;;;;;;;4.85;1.20;;;;;;;;;;4899780;29;20067;-73
2022/07/16 13:36:00;;;;;;;3.03;1.20;;;;;;;;;;4884705;29;20056;-73
2022/07/16 13:38:27;;;;;;;1.60;0.90;;;;;;;;;;4900270;29;20056;-73
2022/07/16 13:40:54;;;;;;;1.85;1.30;;;;;;;;;;4900227;29;20139;-73
2022/07/16 13:43:21;;;;;;;2.55;1.50;;;;;;;;;;4899994;29;20056;-73
2022/07/16 13:45:48;;;;;;;3.50;2.00;;;;;;;;;;4900228;29;20110;-73
2022/07/16 13:48:16;;;;;;;2.83;1.50;;;;;;;;;;4915310;29;20130;-74
2022/07/16 13:50:43;;;;;;;1.58;1.08;;;;;;;;;;4915788;29;20086;-74
2022/07/16 13:53:10;;;;;;;1.92;1.08;;;;;;;;;;4899628;29;20517;-72
2022/07/16 13:55:37;;;;;;;2.22;1.00;;;;;;;;;;4916934;29;20052;-73
2022/07/16 13:58:14;;;;;;;1.35;1.05;;;;;;;;;;4915497;29;20058;-73
2022/07/16 14:00:47;;;;;;;1.77;1.33;;;;;;;;;;4915431;29;20067;-72
2022/07/16 14:03:14;;;;;;;2.15;1.20;;;;;;;;;;4900216;29;20048;-73
2022/07/16 14:05:41;;;;;;;4.13;1.73;;;;;;;;;;4899764;29;20048;-73
2022/07/16 14:08:09;;;;;;;2.55;1.10;;;;;;;;;;4899678;29;20456;-72
2022/07/16 14:10:36;;;;;;;1.30;0.82;;;;;;;;;;4899890;29;20059;-72
2022/07/16 14:13:03;;;;;;;2.70;1.42;;;;;;;;;;4899579;29;20591;-72
2022/07/16 14:15:29;;;;;;;2.92;2.05;;;;;;;;;;4899492;29;20063;-72
2022/07/16 14:17:58;;;;;;;1.80;1.60;;;;;;;;;;4899262;29;20523;-72
2022/07/16 14:20:25;;;;;;;3.40;1.20;;;;;;;;;;4899561;29;20087;-73
2022/07/16 14:22:52;;;;;;;3.53;1.60;;;;;;;;;;4899385;29;20052;-73
2022/07/16 14:25:21;;;;;;;2.47;2.05;;;;;;;;;;4915022;29;20060;-73
2022/07/16 14:27:48;;;;;;;1.65;1.50;;;;;;;;;;4914831;29;20056;-72
2022/07/16 14:30:15;;;;;;;2.85;1.20;;;;;;;;;;4899379;29;20426;-73
2022/07/16 14:32:42;;;;;;;1.55;1.08;;;;;;;;;;4896103;29;20447;-74
2022/07/16 14:35:09;;;;;;;4.82;1.50;;;;;;;;;;4896098;29;20464;-74
2022/07/16 14:37:37;;;;;;;2.95;1.23;;;;;;;;;;4880576;29;20427;-74
2022/07/16 14:40:07;;;;;;;3.90;1.90;;;;;;;;;;4880336;29;20052;-73
2022/07/16 14:42:36;;;;;;;1.42;1.05;;;;;;;;;;4884463;29;20056;-73
2022/07/16 14:45:05;;;;;;;1.45;1.25;;;;;;;;;;4904568;29;20048;-74
2022/07/16 14:47:33;;;;;;;2.15;1.73;;;;;;;;;;4882930;29;20053;-74
2022/07/16 14:50:00;;;;;;;3.63;1.77;;;;;;;;;;4895403;29;20508;-73
2022/07/16 14:52:26;;;;;;;4.85;1.50;;;;;;;;;;4905425;29;20123;-74
2022/07/16 14:54:53;;;;;;;2.10;1.65;;;;;;;;;;4914535;29;20169;-73
2022/07/16 14:57:20;;;;;;;3.13;1.60;;;;;;;;;;4883571;29;20087;-73
2022/07/16 14:59:47;;;;;;;4.55;1.48;;;;;;;;;;4887105;29;20176;-75
2022/07/16 15:04:39;;;;;;;2.08;1.30;;;;;;;;;;4931795;23;20523;-72
2022/07/16 15:07:06;;;;;;;2.08;1.40;;;;;;;;;;4913758;29;20128;-68